createdAt,value
2022-08-04T00:01:45.153Z,49.22
2022-08-04T00:04:01.997Z,49.45
2022-08-04T00:06:10.068Z,49.39
2022-08-04T00:08:19.291Z,49.12
2022-08-04T00:10:23.030Z,48.41
2022-08-04T00:12:31.505Z,48.76
2022-08-04T00:14:41.795Z,48.63
2022-08-04T00:16:46.474Z,48.44
2022-08-04T00:18:57.588Z,48.83
2022-08-04T00:21:04.507Z,49.21
2022-08-04T00:23:06.825Z,49.17
2022-08-04T00:25:08.660Z,48.94
2022-08-04T00:27:10.911Z,49.42
2022-08-04T00:29:12.647Z,48.71
2022-08-04T00:31:16.063Z,48.92
2022-08-04T00:33:22.057Z,48.70
2022-08-04T00:35:24.033Z,48.78
2022-08-04T00:37:27.327Z,48.64
2022-08-04T00:39:30.862Z,48.72
2022-08-04T00:41:57.027Z,48.78
2022-08-04T00:44:01.910Z,48.53
2022-08-04T00:46:34.544Z,49.12
2022-08-04T00:49:02.166Z,48.60
2022-08-04T00:51:17.420Z,48.69
2022-08-04T00:53:39.281Z,48.83
2022-08-04T00:56:05.413Z,48.83
2022-08-04T00:58:19.254Z,48.19
2022-08-04T01:00:21.273Z,48.05
2022-08-04T01:02:35.872Z,47.59
2022-08-04T01:05:06.546Z,47.33
2022-08-04T01:07:18.880Z,47.19
2022-08-04T01:09:40.217Z,47.25
2022-08-04T01:12:12.821Z,47.33
2022-08-04T01:14:51.898Z,47.48
2022-08-04T01:17:14.582Z,47.61
2022-08-04T01:19:28.931Z,47.51
2022-08-04T01:21:40.561Z,47.22
2022-08-04T01:23:48.241Z,47.23
2022-08-04T01:26:43.198Z,47.17
2022-08-04T01:29:09.676Z,47.27
2022-08-04T01:31:44.093Z,47.44
2022-08-04T01:34:04.051Z,47.41
2022-08-04T01:36:07.111Z,46.95
2022-08-04T01:38:21.229Z,47.14
2022-08-04T01:40:27.351Z,46.56
2022-08-04T01:42:32.606Z,47.00
2022-08-04T01:44:36.912Z,47.21
2022-08-04T01:46:40.480Z,47.27
2022-08-04T01:48:47.379Z,46.19
2022-08-04T01:50:57.313Z,46.40
2022-08-04T01:53:01.629Z,46.98
2022-08-04T01:55:07.101Z,46.59
2022-08-04T01:57:38.243Z,46.69
2022-08-04T01:59:34.735Z,46.38
2022-08-04T02:01:37.499Z,46.06
2022-08-04T02:04:18.548Z,45.42
2022-08-04T02:06:25.531Z,45.41
2022-08-04T02:08:27.609Z,45.15
2022-08-04T02:10:31.417Z,45.19
2022-08-04T02:12:36.632Z,45.22
2022-08-04T02:15:01.002Z,44.86
2022-08-04T02:17:13.001Z,45.30
2022-08-04T02:19:33.511Z,45.11
2022-08-04T02:21:42.389Z,45.12
2022-08-04T02:23:47.127Z,45.04
2022-08-04T02:26:01.636Z,44.86
2022-08-04T02:28:06.572Z,45.12
2022-08-04T02:30:08.872Z,44.79
2022-08-04T02:32:25.698Z,44.80
2022-08-04T02:34:54.890Z,44.84
2022-08-04T02:36:59.885Z,44.92
2022-08-04T02:39:04.247Z,45.11
2022-08-04T02:41:09.348Z,44.92
2022-08-04T02:43:13.228Z,44.81
2022-08-04T02:45:19.142Z,45.25
2022-08-04T02:47:22.560Z,44.58
2022-08-04T02:49:28.318Z,44.95
2022-08-04T02:51:42.728Z,45.19
2022-08-04T02:53:46.598Z,45.43
2022-08-04T02:55:52.310Z,45.29
2022-08-04T02:57:59.576Z,45.42
2022-08-04T03:00:15.276Z,45.41
2022-08-04T03:02:22.482Z,45.47
2022-08-04T03:04:42.796Z,45.42
2022-08-04T03:06:47.558Z,45.51
2022-08-04T03:09:07.340Z,45.32
2022-08-04T03:11:18.379Z,45.44
2022-08-04T03:14:09.545Z,45.44
2022-08-04T03:16:15.564Z,45.34
2022-08-04T03:18:35.981Z,45.00
2022-08-04T03:21:22.702Z,45.26
2022-08-04T03:24:06.339Z,45.43
2022-08-04T03:26:32.338Z,45.25
2022-08-04T03:28:48.857Z,45.47
2022-08-04T03:31:24.584Z,45.44
2022-08-04T03:33:45.452Z,45.42
2022-08-04T03:36:28.499Z,45.86
2022-08-04T03:39:00.489Z,45.93
2022-08-04T03:41:54.892Z,45.68
2022-08-04T03:44:13.422Z,46.03
2022-08-04T03:46:47.752Z,46.04
2022-08-04T03:49:22.848Z,46.08
2022-08-04T03:52:14.915Z,46.42
2022-08-04T03:54:37.191Z,46.37
2022-08-04T03:57:20.693Z,46.50
2022-08-04T03:59:48.854Z,46.45
2022-08-04T04:02:02.905Z,46.32
2022-08-04T04:04:30.433Z,46.99
2022-08-04T04:07:05.772Z,47.10
2022-08-04T04:09:23.407Z,47.23
2022-08-04T04:11:57.882Z,47.67
2022-08-04T04:14:10.914Z,47.46
2022-08-04T04:16:18.575Z,47.70
2022-08-04T04:18:52.380Z,48.15
2022-08-04T04:21:09.286Z,48.62
2022-08-04T04:23:20.462Z,49.01
2022-08-04T04:26:06.154Z,49.37
2022-08-04T04:28:45.461Z,49.45
2022-08-04T04:30:56.352Z,50.00
2022-08-04T04:33:12.504Z,50.11
2022-08-04T04:35:20.644Z,50.21
2022-08-04T04:37:28.369Z,50.17
2022-08-04T04:39:56.941Z,50.44
2022-08-04T04:42:21.180Z,50.48
2022-08-04T04:44:35.688Z,50.81
2022-08-04T04:46:46.222Z,50.70
2022-08-04T04:49:31.619Z,50.57
2022-08-04T04:51:50.584Z,50.52
2022-08-04T04:54:12.387Z,51.21
2022-08-04T04:56:47.311Z,51.50
2022-08-04T04:58:52.988Z,51.46
2022-08-04T05:01:36.614Z,51.66
2022-08-04T05:04:06.581Z,51.68
2022-08-04T05:06:19.483Z,51.92
2022-08-04T05:08:47.399Z,52.23
2022-08-04T05:11:08.884Z,52.34
2022-08-04T05:14:37.036Z,52.26
2022-08-04T05:15:45.218Z,52.30
2022-08-04T05:17:51.258Z,52.42
2022-08-04T05:20:03.746Z,52.23
2022-08-04T05:22:33.357Z,52.37
2022-08-04T05:24:44.101Z,51.82
2022-08-04T05:26:47.127Z,51.64
2022-08-04T05:28:53.862Z,51.35
2022-08-04T05:31:06.401Z,51.59
2022-08-04T05:33:13.900Z,51.72
2022-08-04T05:36:16.864Z,52.13
2022-08-04T05:38:06.589Z,51.77
2022-08-04T05:40:11.074Z,51.84
2022-08-04T05:42:13.970Z,51.87
2022-08-04T05:44:18.299Z,52.20
2022-08-04T05:46:20.232Z,52.19
2022-08-04T05:48:22.956Z,51.93
2022-08-04T05:50:25.038Z,52.03
2022-08-04T05:52:27.868Z,51.98
2022-08-04T05:54:35.458Z,51.75
2022-08-04T05:56:39.038Z,51.97
2022-08-04T05:58:42.547Z,51.72
2022-08-04T06:00:52.293Z,51.93
2022-08-04T06:02:55.984Z,51.78
2022-08-04T06:04:59.467Z,52.10
2022-08-04T06:07:01.423Z,52.06
2022-08-04T06:09:03.291Z,51.97
2022-08-04T06:11:08.440Z,51.92
2022-08-04T06:13:48.416Z,52.07
2022-08-04T06:15:46.150Z,51.99
2022-08-04T06:18:32.817Z,52.26
2022-08-04T06:20:37.280Z,52.39
2022-08-04T06:22:41.840Z,52.68
2022-08-04T06:24:48.257Z,52.55
2022-08-04T06:26:51.661Z,52.79
2022-08-04T06:28:55.491Z,52.70
2022-08-04T06:32:31.796Z,52.61
2022-08-04T06:33:27.704Z,52.38
2022-08-04T06:35:31.435Z,52.70
2022-08-04T06:37:43.179Z,52.60
2022-08-04T06:39:46.244Z,52.69
2022-08-04T06:42:14.804Z,52.80
2022-08-04T06:44:13.160Z,52.65
2022-08-04T06:46:15.455Z,52.79
2022-08-04T06:48:19.108Z,52.83
2022-08-04T06:51:27.654Z,53.23
2022-08-04T06:52:45.331Z,53.24
2022-08-04T06:54:48.834Z,53.45
2022-08-04T06:56:53.326Z,53.50
2022-08-04T06:58:55.970Z,53.53
2022-08-04T07:01:02.127Z,53.49
2022-08-04T07:03:05.610Z,53.27
2022-08-04T07:05:08.616Z,52.64
2022-08-04T07:07:11.919Z,52.53
2022-08-04T07:09:18.993Z,52.26
2022-08-04T07:11:21.403Z,52.55
2022-08-04T07:13:23.805Z,52.54
2022-08-04T07:15:26.982Z,51.87
2022-08-04T07:17:34.608Z,52.11
2022-08-04T07:19:37.255Z,52.17
2022-08-04T07:21:39.783Z,52.15
2022-08-04T07:23:41.632Z,52.12
2022-08-04T07:26:10.853Z,51.94
2022-08-04T07:28:07.270Z,51.75
2022-08-04T07:30:09.878Z,52.04
2022-08-04T07:32:13.755Z,51.63
2022-08-04T07:34:21.094Z,51.58
2022-08-04T07:36:24.001Z,51.51
2022-08-04T07:38:31.966Z,51.69
2022-08-04T07:40:36.441Z,52.25
2022-08-04T07:42:41.319Z,52.16
2022-08-04T07:44:45.985Z,52.16
2022-08-04T07:46:48.052Z,52.15
2022-08-04T07:48:49.998Z,52.33
2022-08-04T07:50:52.478Z,51.95
2022-08-04T07:53:22.428Z,51.75
2022-08-04T07:55:16.979Z,51.40
2022-08-04T07:57:40.664Z,51.05
2022-08-04T07:59:44.890Z,51.34
2022-08-04T08:01:49.698Z,51.28
2022-08-04T08:03:52.979Z,51.03
2022-08-04T08:06:17.200Z,50.88
2022-08-04T08:08:16.926Z,51.45
2022-08-04T08:10:18.762Z,50.99
2022-08-04T08:12:35.442Z,50.75
2022-08-04T08:14:43.801Z,50.54
2022-08-04T08:16:46.985Z,50.63
2022-08-04T08:18:50.166Z,50.49
2022-08-04T08:20:53.300Z,50.58
2022-08-04T08:22:55.067Z,50.57
2022-08-04T08:24:57.021Z,50.62
2022-08-04T08:27:00.415Z,49.36
2022-08-04T08:29:04.132Z,49.01
2022-08-04T08:31:07.181Z,49.54
2022-08-04T08:33:12.922Z,49.40
2022-08-04T08:35:14.645Z,49.63
2022-08-04T08:37:30.941Z,49.81
2022-08-04T08:39:59.742Z,49.42
2022-08-04T08:42:33.899Z,49.29
2022-08-04T08:45:04.749Z,49.73
2022-08-04T08:47:15.635Z,48.96
2022-08-04T08:50:00.822Z,49.21
2022-08-04T08:53:00.823Z,49.24
2022-08-04T08:55:19.877Z,49.22
2022-08-04T08:57:30.625Z,49.20
2022-08-04T08:59:32.136Z,48.34
2022-08-04T09:01:55.067Z,48.32
2022-08-04T09:04:32.879Z,48.40
2022-08-04T09:06:43.815Z,47.49
2022-08-04T09:09:05.850Z,47.56
2022-08-04T09:11:19.825Z,47.83
2022-08-04T09:13:27.840Z,47.18
2022-08-04T09:15:57.372Z,47.25
2022-08-04T09:18:16.502Z,47.08
2022-08-04T09:20:30.029Z,46.87
2022-08-04T09:22:48.387Z,46.42
2022-08-04T09:25:21.512Z,46.06
2022-08-04T09:27:31.014Z,46.16
2022-08-04T09:29:52.664Z,45.63
2022-08-04T09:32:16.552Z,45.66
2022-08-04T09:34:27.902Z,45.18
2022-08-04T09:36:39.614Z,44.72
2022-08-04T09:39:01.436Z,44.84
2022-08-04T09:41:48.139Z,44.06
2022-08-04T09:44:49.206Z,44.42
2022-08-04T09:46:44.930Z,43.96
2022-08-04T09:48:46.604Z,43.91
2022-08-04T09:50:58.189Z,44.06
2022-08-04T09:53:15.462Z,43.71
2022-08-04T09:55:20.106Z,43.86
2022-08-04T09:57:45.804Z,43.45
2022-08-04T10:00:06.481Z,42.96
2022-08-04T10:02:09.616Z,42.27
2022-08-04T10:04:15.069Z,42.19
2022-08-04T10:06:45.968Z,41.93
2022-08-04T10:08:59.516Z,42.06
2022-08-04T10:11:18.097Z,42.31
2022-08-04T10:13:19.950Z,42.11
2022-08-04T10:15:34.083Z,42.47
2022-08-04T10:17:54.713Z,42.08
2022-08-04T10:20:45.641Z,41.62
2022-08-04T10:23:12.278Z,41.41
2022-08-04T10:26:05.965Z,41.27
2022-08-04T10:28:03.132Z,41.66
2022-08-04T10:30:12.997Z,41.37
2022-08-04T10:32:26.692Z,41.17
2022-08-04T10:34:36.713Z,41.25
2022-08-04T10:37:04.810Z,40.82
2022-08-04T10:39:41.968Z,40.53
2022-08-04T10:41:54.544Z,39.80
2022-08-04T10:44:23.842Z,39.50
2022-08-04T10:46:37.667Z,37.63
2022-08-04T10:48:48.417Z,37.77
2022-08-04T10:51:22.317Z,38.33
2022-08-04T10:53:27.028Z,38.29
2022-08-04T10:56:06.399Z,37.93
2022-08-04T10:58:04.538Z,37.63
2022-08-04T11:00:12.929Z,37.65
2022-08-04T11:02:27.165Z,37.31
2022-08-04T11:04:53.661Z,36.84
2022-08-04T11:06:58.841Z,36.99
2022-08-04T11:09:03.095Z,37.06
2022-08-04T11:11:15.123Z,37.23
2022-08-04T11:13:22.041Z,37.26
2022-08-04T11:15:40.049Z,36.87
2022-08-04T11:17:47.240Z,36.78
2022-08-04T11:19:55.715Z,36.45
2022-08-04T11:22:25.051Z,36.37
2022-08-04T11:25:02.150Z,36.37
2022-08-04T11:27:16.331Z,36.05
2022-08-04T11:29:31.926Z,35.84
2022-08-04T11:31:39.456Z,36.33
2022-08-04T11:33:53.225Z,36.04
2022-08-04T11:36:16.590Z,35.84
2022-08-04T11:38:32.157Z,36.05
2022-08-04T11:41:02.317Z,35.88
2022-08-04T11:43:19.127Z,35.40
2022-08-04T11:45:51.126Z,35.01
2022-08-04T11:48:07.122Z,35.01
2022-08-04T11:50:14.874Z,34.10
2022-08-04T11:52:19.632Z,34.18
2022-08-04T11:54:22.257Z,33.39
2022-08-04T11:56:36.582Z,33.46
2022-08-04T11:58:39.271Z,33.70
2022-08-04T12:00:53.830Z,33.97
2022-08-04T12:03:33.322Z,33.22
2022-08-04T12:05:55.101Z,32.74
2022-08-04T12:08:38.733Z,32.27
2022-08-04T12:11:01.792Z,32.53
2022-08-04T12:13:20.253Z,32.27
2022-08-04T12:15:31.446Z,32.12
2022-08-04T12:17:52.517Z,31.11
2022-08-04T12:20:31.734Z,31.20
2022-08-04T12:22:29.835Z,31.79
2022-08-04T12:24:46.155Z,31.63
2022-08-04T12:26:54.098Z,31.53
2022-08-04T12:29:10.429Z,31.64
2022-08-04T12:31:52.902Z,31.31
2022-08-04T12:34:03.863Z,31.05
2022-08-04T12:36:24.967Z,31.28
2022-08-04T12:38:32.460Z,31.08
2022-08-04T12:40:38.601Z,31.91
2022-08-04T12:42:55.881Z,32.20
2022-08-04T12:45:08.031Z,33.23
2022-08-04T12:47:27.723Z,33.55
2022-08-04T12:49:35.081Z,34.13
2022-08-04T12:52:08.066Z,34.62
2022-08-04T12:54:03.694Z,34.42
2022-08-04T12:56:07.810Z,34.13
2022-08-04T12:58:41.842Z,34.55
2022-08-04T13:00:42.160Z,34.36
2022-08-04T13:02:47.059Z,33.56
2022-08-04T13:04:51.157Z,33.58
2022-08-04T13:07:00.765Z,33.71
2022-08-04T13:09:19.753Z,33.58
2022-08-04T13:11:22.927Z,33.57
2022-08-04T13:13:31.405Z,33.36
2022-08-04T13:15:47.601Z,33.42
2022-08-04T13:18:14.823Z,32.86
2022-08-04T13:20:24.554Z,32.81
2022-08-04T13:22:30.126Z,33.12
2022-08-04T13:24:37.512Z,32.96
2022-08-04T13:26:57.879Z,32.52
2022-08-04T13:29:20.422Z,32.78
2022-08-04T13:31:23.829Z,32.15
2022-08-04T13:33:32.792Z,32.68
2022-08-04T13:35:55.642Z,32.07
2022-08-04T13:37:58.579Z,31.34
2022-08-04T13:40:03.268Z,31.77
2022-08-04T13:42:12.282Z,31.56
2022-08-04T13:44:20.389Z,31.13
2022-08-04T13:46:31.831Z,31.30
2022-08-04T13:48:39.353Z,31.34
2022-08-04T13:50:46.113Z,31.57
2022-08-04T13:52:48.343Z,31.89
2022-08-04T13:54:53.670Z,32.03
2022-08-04T13:57:00.687Z,31.67
2022-08-04T13:59:05.982Z,32.20
2022-08-04T14:01:21.012Z,31.53
2022-08-04T14:03:53.952Z,31.80
2022-08-04T14:06:08.107Z,31.05
2022-08-04T14:08:18.053Z,30.79
2022-08-04T14:10:20.018Z,30.14
2022-08-04T14:12:46.374Z,30.15
2022-08-04T14:14:52.525Z,30.08
2022-08-04T14:17:05.755Z,30.57
2022-08-04T14:19:08.194Z,30.61
2022-08-04T14:21:13.001Z,31.18
2022-08-04T14:23:14.706Z,30.83
2022-08-04T14:25:18.542Z,31.12
2022-08-04T14:27:20.516Z,30.32
2022-08-04T14:29:28.989Z,30.17
2022-08-04T14:31:31.374Z,30.77
2022-08-04T14:34:03.503Z,30.53
2022-08-04T14:36:04.058Z,30.67
2022-08-04T14:38:11.127Z,31.35
2022-08-04T14:40:30.558Z,30.32
2022-08-04T14:42:55.475Z,30.37
2022-08-04T14:45:01.052Z,30.80
2022-08-04T14:47:02.837Z,29.97
2022-08-04T14:49:11.256Z,30.30
2022-08-04T14:51:16.439Z,30.32
2022-08-04T14:53:26.536Z,30.01
2022-08-04T14:55:28.360Z,29.73
2022-08-04T14:57:30.141Z,30.10
2022-08-04T15:00:00.618Z,30.73
2022-08-04T15:02:04.985Z,30.54
2022-08-04T15:04:07.814Z,30.64
2022-08-04T15:06:16.171Z,31.04
2022-08-04T15:08:20.911Z,31.37
2022-08-04T15:10:22.958Z,31.49
2022-08-04T15:12:24.965Z,31.15
2022-08-04T15:14:36.249Z,31.24
2022-08-04T15:16:39.893Z,31.25
2022-08-04T15:18:57.669Z,31.49
2022-08-04T15:21:03.239Z,30.46
2022-08-04T15:23:10.630Z,30.50
2022-08-04T15:25:15.649Z,30.91
2022-08-04T15:27:19.575Z,30.31
2022-08-04T15:29:29.795Z,30.70
2022-08-04T15:32:06.006Z,30.47
2022-08-04T15:34:11.916Z,31.26
2022-08-04T15:36:22.491Z,31.07
2022-08-04T15:38:37.317Z,31.14
2022-08-04T15:40:45.011Z,30.99
2022-08-04T15:43:22.044Z,31.68
2022-08-04T15:46:37.366Z,31.66
2022-08-04T15:48:07.341Z,31.90
2022-08-04T15:50:13.747Z,31.99
2022-08-04T15:53:00.735Z,31.92
2022-08-04T15:55:57.299Z,32.22
2022-08-04T15:58:04.852Z,31.86
2022-08-04T16:00:14.664Z,31.93
2022-08-04T16:02:32.221Z,32.08
2022-08-04T16:04:34.061Z,32.23
2022-08-04T16:06:35.673Z,32.16
2022-08-04T16:08:57.225Z,31.99
2022-08-04T16:10:59.981Z,32.24
2022-08-04T16:13:08.430Z,32.21
2022-08-04T16:15:40.990Z,32.35
2022-08-04T16:17:42.721Z,31.92
2022-08-04T16:19:48.923Z,31.51
2022-08-04T16:21:53.338Z,31.33
2022-08-04T16:24:06.984Z,30.81
2022-08-04T16:26:08.931Z,31.08
2022-08-04T16:28:35.529Z,32.03
2022-08-04T16:30:41.676Z,31.60
2022-08-04T16:32:48.064Z,31.57
2022-08-04T16:35:04.389Z,31.26
2022-08-04T16:37:12.554Z,30.90
2022-08-04T16:39:20.213Z,30.92
2022-08-04T16:41:42.501Z,31.36
2022-08-04T16:43:44.241Z,31.03
2022-08-04T16:45:54.137Z,31.28
2022-08-04T16:47:55.878Z,31.17
2022-08-04T16:50:03.946Z,30.79
2022-08-04T16:52:11.906Z,30.40
2022-08-04T16:54:15.727Z,30.91
2022-08-04T16:56:20.669Z,30.43
2022-08-04T16:58:28.464Z,30.95
2022-08-04T17:00:38.221Z,30.54
2022-08-04T17:02:40.385Z,30.47
2022-08-04T17:04:42.137Z,30.96
2022-08-04T17:06:48.629Z,30.82
2022-08-04T17:08:50.336Z,30.87
2022-08-04T17:10:52.067Z,31.00
2022-08-04T17:13:08.529Z,30.52
2022-08-04T17:15:23.288Z,30.55
2022-08-04T17:17:25.056Z,30.55
2022-08-04T17:19:52.773Z,30.50
2022-08-04T17:22:02.992Z,30.27
2022-08-04T17:24:14.684Z,30.35
2022-08-04T17:26:24.347Z,30.55
2022-08-04T17:28:47.305Z,30.28
2022-08-04T17:30:51.556Z,30.25
2022-08-04T17:32:53.508Z,30.47
2022-08-04T17:34:59.302Z,30.30
2022-08-04T17:37:37.806Z,30.33
2022-08-04T17:39:34.870Z,30.57
2022-08-04T17:41:40.206Z,30.21
2022-08-04T17:44:05.321Z,30.64
2022-08-04T17:46:29.201Z,29.84
2022-08-04T17:48:31.498Z,30.14
2022-08-04T17:50:36.398Z,30.58
2022-08-04T17:52:45.435Z,30.30
2022-08-04T17:54:47.318Z,30.06
2022-08-04T17:56:52.335Z,30.24
2022-08-04T17:59:55.433Z,30.14
2022-08-04T18:01:52.226Z,30.35
2022-08-04T18:03:58.124Z,30.18
2022-08-04T18:06:12.187Z,30.14
2022-08-04T18:08:39.303Z,29.98
2022-08-04T18:10:55.370Z,29.98
2022-08-04T18:13:07.770Z,30.09
2022-08-04T18:15:25.561Z,29.90
2022-08-04T18:18:21.443Z,30.34
2022-08-04T18:20:15.205Z,30.08
2022-08-04T18:22:27.881Z,30.00
2022-08-04T18:24:35.096Z,29.90
2022-08-04T18:26:53.951Z,30.15
2022-08-04T18:28:55.833Z,30.42
2022-08-04T18:30:58.122Z,30.59
2022-08-04T18:33:16.529Z,30.19
2022-08-04T18:35:22.967Z,30.24
2022-08-04T18:38:03.711Z,29.85
2022-08-04T18:40:09.754Z,29.87
2022-08-04T18:42:09.722Z,30.13
2022-08-04T18:44:11.804Z,30.08
2022-08-04T18:46:16.494Z,29.80
2022-08-04T18:48:18.376Z,30.13
2022-08-04T18:51:01.174Z,30.13
2022-08-04T18:52:45.738Z,29.81
2022-08-04T18:54:47.832Z,29.89
2022-08-04T18:59:17.773Z,29.91
2022-08-04T19:01:21.158Z,30.09
2022-08-04T19:03:33.081Z,30.27
2022-08-04T19:05:38.067Z,29.91
2022-08-04T19:08:01.929Z,30.15
2022-08-04T19:10:05.019Z,29.99
2022-08-04T19:12:07.979Z,30.34
2022-08-04T19:14:13.780Z,30.13
2022-08-04T19:16:16.691Z,32.41
2022-08-04T19:18:22.630Z,31.14
2022-08-04T19:20:26.921Z,33.42
2022-08-04T19:22:35.568Z,32.91
2022-08-04T19:24:40.954Z,31.21
2022-08-04T19:26:42.889Z,31.25
2022-08-04T19:28:52.496Z,30.33
2022-08-04T19:30:55.080Z,30.96
2022-08-04T19:32:57.268Z,31.02
2022-08-04T19:34:59.407Z,32.00
2022-08-04T19:37:02.455Z,30.45
2022-08-04T19:39:16.806Z,29.84
2022-08-04T19:41:18.934Z,29.79
2022-08-04T19:43:22.872Z,29.64
2022-08-04T19:45:41.726Z,29.87
2022-08-04T19:48:17.555Z,29.43
2022-08-04T19:50:10.504Z,29.67
2022-08-04T19:52:13.637Z,29.65
2022-08-04T19:54:23.602Z,30.00
2022-08-04T19:56:29.672Z,29.82
2022-08-04T19:58:42.201Z,29.89
2022-08-04T20:00:51.258Z,30.04
2022-08-04T20:02:54.087Z,30.43
2022-08-04T20:04:56.100Z,30.36
2022-08-04T20:06:58.629Z,30.41
2022-08-04T20:09:00.751Z,30.58
2022-08-04T20:11:03.617Z,31.14
2022-08-04T20:13:10.446Z,30.71
2022-08-04T20:15:15.131Z,30.85
2022-08-04T20:17:17.916Z,31.21
2022-08-04T20:19:26.411Z,31.01
2022-08-04T20:21:54.315Z,31.38
2022-08-04T20:23:52.664Z,31.85
2022-08-04T20:25:55.035Z,31.45
2022-08-04T20:27:59.832Z,31.67
2022-08-04T20:30:07.599Z,31.71
2022-08-04T20:32:25.603Z,31.69
2022-08-04T20:34:28.161Z,31.60
2022-08-04T20:36:30.204Z,31.67
2022-08-04T20:38:33.416Z,31.58
2022-08-04T20:40:40.749Z,31.54
2022-08-04T20:42:45.064Z,31.89
2022-08-04T20:44:48.610Z,31.73
2022-08-04T20:46:50.732Z,31.70
2022-08-04T20:49:03.215Z,31.87
2022-08-04T20:51:08.972Z,31.65
2022-08-04T20:53:16.168Z,31.92
2022-08-04T20:55:19.250Z,32.02
2022-08-04T20:57:47.626Z,32.08
2022-08-04T20:59:59.599Z,31.85
2022-08-04T21:02:06.151Z,32.03
2022-08-04T21:04:45.278Z,32.37
2022-08-04T21:06:50.133Z,32.41
2022-08-04T21:08:57.283Z,32.26
2022-08-04T21:11:00.396Z,32.15
2022-08-04T21:13:02.529Z,32.06
2022-08-04T21:15:14.169Z,32.63
2022-08-04T21:19:46.805Z,32.64
2022-08-04T21:21:53.232Z,32.48
2022-08-04T21:23:55.788Z,32.52
2022-08-04T21:26:04.058Z,32.63
2022-08-04T21:28:05.955Z,32.52
2022-08-04T21:30:24.140Z,33.08
2022-08-04T21:32:28.398Z,32.93
2022-08-04T21:36:52.612Z,32.84
2022-08-04T21:38:57.428Z,32.90
2022-08-04T21:41:01.744Z,32.57
2022-08-04T21:43:04.235Z,32.94
2022-08-04T21:45:07.893Z,32.52
2022-08-04T21:47:23.174Z,33.06
2022-08-04T21:49:32.692Z,32.96
2022-08-04T21:51:59.196Z,32.63
2022-08-04T21:54:01.718Z,32.79
2022-08-04T21:56:05.010Z,33.08
2022-08-04T21:58:09.457Z,33.09
2022-08-04T22:00:19.409Z,32.93
2022-08-04T22:02:22.115Z,32.96
2022-08-04T22:04:24.253Z,33.20
2022-08-04T22:06:28.279Z,33.32
2022-08-04T22:08:31.015Z,33.65
2022-08-04T22:10:33.317Z,33.37
2022-08-04T22:12:35.605Z,33.73
2022-08-04T22:14:39.541Z,33.66
2022-08-04T22:16:41.680Z,33.60
2022-08-04T22:18:43.896Z,33.63
2022-08-04T22:20:46.970Z,33.84
2022-08-04T22:22:51.368Z,33.90
2022-08-04T22:24:54.235Z,33.92
2022-08-04T22:26:56.362Z,33.90
2022-08-04T22:28:58.624Z,34.10
2022-08-04T22:31:24.149Z,34.00
2022-08-04T22:33:54.724Z,34.00
2022-08-04T22:35:49.715Z,34.11
2022-08-04T22:38:05.645Z,33.90
2022-08-04T22:40:11.999Z,34.25
2022-08-04T22:42:15.252Z,34.32
2022-08-04T22:44:18.258Z,34.74
2022-08-04T22:46:32.748Z,34.44
2022-08-04T22:48:39.679Z,34.26
2022-08-04T22:50:45.897Z,34.37
2022-08-04T22:52:49.696Z,34.48
2022-08-04T22:54:58.380Z,34.65
2022-08-04T22:57:00.233Z,34.28
2022-08-04T22:59:02.924Z,34.57
2022-08-04T23:01:06.109Z,34.45
2022-08-04T23:03:10.091Z,34.47
2022-08-04T23:05:35.837Z,34.57
2022-08-04T23:07:49.523Z,34.78
2022-08-04T23:09:53.683Z,34.78
2022-08-04T23:12:15.158Z,34.96
2022-08-04T23:14:19.878Z,34.96
2022-08-04T23:16:24.698Z,35.28
2022-08-04T23:18:27.063Z,35.51
2022-08-04T23:20:32.543Z,35.15
2022-08-04T23:22:37.419Z,35.35
2022-08-04T23:24:45.122Z,35.44
2022-08-04T23:26:49.811Z,35.44
2022-08-04T23:28:51.714Z,35.44
2022-08-04T23:30:53.831Z,35.52
2022-08-04T23:32:56.043Z,35.47
2022-08-04T23:34:58.865Z,35.63
2022-08-04T23:37:01.160Z,35.40
2022-08-04T23:39:05.612Z,35.66
2022-08-04T23:41:13.516Z,35.46
2022-08-04T23:43:17.844Z,35.40
2022-08-04T23:46:04.042Z,35.52
2022-08-04T23:48:18.504Z,35.25
2022-08-04T23:50:04.377Z,35.17
2022-08-04T23:52:06.415Z,35.26
2022-08-04T23:54:08.397Z,35.52
2022-08-04T23:56:19.501Z,35.37
2022-08-04T23:58:27.489Z,35.63
